sensor_id;sensor_type;location;lat;lon;timestamp;P1;durP1;ratioP1;P2;durP2;ratioP2
74821;SDS011;63353;48.702;8.884;2022-12-18T00:01:26;35.42;;;15.18;;
74821;SDS011;63353;48.702;8.884;2022-12-18T00:04:00;38.33;;;15.13;;
74821;SDS011;63353;48.702;8.884;2022-12-18T00:06:28;33.85;;;14.90;;
74821;SDS011;63353;48.702;8.884;2022-12-18T00:08:54;34.67;;;15.07;;
74821;SDS011;63353;48.702;8.884;2022-12-18T00:11:22;36.63;;;14.88;;
74821;SDS011;63353;48.702;8.884;2022-12-18T00:13:49;33.60;;;13.85;;
74821;SDS011;63353;48.702;8.884;2022-12-18T00:16:25;36.78;;;15.27;;
74821;SDS011;63353;48.702;8.884;2022-12-18T00:18:55;33.42;;;14.85;;
74821;SDS011;63353;48.702;8.884;2022-12-18T00:21:22;29.23;;;13.85;;
74821;SDS011;63353;48.702;8.884;2022-12-18T00:23:50;35.23;;;15.13;;
74821;SDS011;63353;48.702;8.884;2022-12-18T00:26:20;36.38;;;14.98;;
74821;SDS011;63353;48.702;8.884;2022-12-18T00:28:48;33.00;;;14.90;;
74821;SDS011;63353;48.702;8.884;2022-12-18T00:31:18;33.70;;;15.30;;
74821;SDS011;63353;48.702;8.884;2022-12-18T00:33:45;37.78;;;15.23;;
74821;SDS011;63353;48.702;8.884;2022-12-18T00:36:13;33.83;;;15.15;;
74821;SDS011;63353;48.702;8.884;2022-12-18T00:38:43;38.90;;;14.90;;
74821;SDS011;63353;48.702;8.884;2022-12-18T00:41:16;37.35;;;15.35;;
74821;SDS011;63353;48.702;8.884;2022-12-18T00:44:12;38.90;;;15.50;;
74821;SDS011;63353;48.702;8.884;2022-12-18T00:46:43;35.30;;;15.35;;
74821;SDS011;63353;48.702;8.884;2022-12-18T00:49:10;37.88;;;16.30;;
74821;SDS011;63353;48.702;8.884;2022-12-18T00:51:42;41.67;;;16.40;;
74821;SDS011;63353;48.702;8.884;2022-12-18T00:54:17;40.63;;;15.60;;
74821;SDS011;63353;48.702;8.884;2022-12-18T00:56:48;40.55;;;16.80;;
74821;SDS011;63353;48.702;8.884;2022-12-18T00:59:17;35.47;;;15.52;;
74821;SDS011;63353;48.702;8.884;2022-12-18T01:01:43;45.65;;;18.15;;
74821;SDS011;63353;48.702;8.884;2022-12-18T01:04:12;47.07;;;17.83;;
74821;SDS011;63353;48.702;8.884;2022-12-18T01:09:25;34.80;;;16.35;;
74821;SDS011;63353;48.702;8.884;2022-12-18T01:11:51;34.43;;;15.93;;
74821;SDS011;63353;48.702;8.884;2022-12-18T01:14:20;35.63;;;15.57;;
74821;SDS011;63353;48.702;8.884;2022-12-18T01:16:45;36.28;;;15.15;;
74821;SDS011;63353;48.702;8.884;2022-12-18T01:19:17;42.03;;;16.90;;
74821;SDS011;63353;48.702;8.884;2022-12-18T01:21:49;42.28;;;17.42;;
74821;SDS011;63353;48.702;8.884;2022-12-18T01:24:18;41.00;;;17.83;;
74821;SDS011;63353;48.702;8.884;2022-12-18T01:26:52;45.92;;;18.23;;
74821;SDS011;63353;48.702;8.884;2022-12-18T01:29:18;42.50;;;16.77;;
74821;SDS011;63353;48.702;8.884;2022-12-18T01:31:50;36.43;;;15.43;;
74821;SDS011;63353;48.702;8.884;2022-12-18T01:34:16;38.88;;;16.52;;
74821;SDS011;63353;48.702;8.884;2022-12-18T01:36:51;38.33;;;16.27;;
74821;SDS011;63353;48.702;8.884;2022-12-18T01:39:22;34.17;;;15.73;;
74821;SDS011;63353;48.702;8.884;2022-12-18T01:41:48;40.13;;;17.03;;
74821;SDS011;63353;48.702;8.884;2022-12-18T01:55:45;44.35;;;17.02;;
74821;SDS011;63353;48.702;8.884;2022-12-18T01:58:19;42.75;;;17.58;;
74821;SDS011;63353;48.702;8.884;2022-12-18T02:01:00;38.92;;;17.02;;
74821;SDS011;63353;48.702;8.884;2022-12-18T02:03:35;41.10;;;18.20;;
74821;SDS011;63353;48.702;8.884;2022-12-18T02:09:07;40.20;;;15.95;;
74821;SDS011;63353;48.702;8.884;2022-12-18T02:20:48;38.95;;;17.58;;
74821;SDS011;63353;48.702;8.884;2022-12-18T02:31:50;43.40;;;17.88;;
74821;SDS011;63353;48.702;8.884;2022-12-18T02:34:18;38.28;;;15.90;;
74821;SDS011;63353;48.702;8.884;2022-12-18T02:36:49;43.78;;;16.67;;
74821;SDS011;63353;48.702;8.884;2022-12-18T02:39:22;45.90;;;19.90;;
74821;SDS011;63353;48.702;8.884;2022-12-18T02:41:54;38.63;;;18.27;;
74821;SDS011;63353;48.702;8.884;2022-12-18T02:44:24;46.30;;;19.30;;
74821;SDS011;63353;48.702;8.884;2022-12-18T02:46:50;48.75;;;19.20;;
74821;SDS011;63353;48.702;8.884;2022-12-18T02:52:00;39.38;;;18.40;;
74821;SDS011;63353;48.702;8.884;2022-12-18T03:04:02;38.95;;;15.68;;
74821;SDS011;63353;48.702;8.884;2022-12-18T03:06:41;30.05;;;11.82;;
74821;SDS011;63353;48.702;8.884;2022-12-18T03:09:19;39.80;;;16.50;;
74821;SDS011;63353;48.702;8.884;2022-12-18T03:12:19;46.22;;;19.10;;
74821;SDS011;63353;48.702;8.884;2022-12-18T03:18:13;54.58;;;20.25;;
74821;SDS011;63353;48.702;8.884;2022-12-18T03:21:02;38.67;;;17.55;;
74821;SDS011;63353;48.702;8.884;2022-12-18T03:23:35;41.83;;;18.27;;
74821;SDS011;63353;48.702;8.884;2022-12-18T03:26:12;41.20;;;17.58;;
74821;SDS011;63353;48.702;8.884;2022-12-18T03:29:00;40.40;;;17.73;;
74821;SDS011;63353;48.702;8.884;2022-12-18T03:31:34;44.17;;;19.48;;
74821;SDS011;63353;48.702;8.884;2022-12-18T03:34:04;44.28;;;19.38;;
74821;SDS011;63353;48.702;8.884;2022-12-18T03:36:39;46.42;;;19.23;;
74821;SDS011;63353;48.702;8.884;2022-12-18T03:39:14;45.55;;;18.75;;
74821;SDS011;63353;48.702;8.884;2022-12-18T03:41:48;39.13;;;16.63;;
74821;SDS011;63353;48.702;8.884;2022-12-18T03:44:29;46.45;;;18.40;;
74821;SDS011;63353;48.702;8.884;2022-12-18T03:47:19;39.58;;;17.98;;
74821;SDS011;63353;48.702;8.884;2022-12-18T03:50:22;40.17;;;17.27;;
74821;SDS011;63353;48.702;8.884;2022-12-18T03:52:59;47.53;;;19.70;;
74821;SDS011;63353;48.702;8.884;2022-12-18T03:55:36;43.95;;;18.92;;
74821;SDS011;63353;48.702;8.884;2022-12-18T03:58:09;46.40;;;19.83;;
74821;SDS011;63353;48.702;8.884;2022-12-18T04:00:38;44.15;;;18.08;;
74821;SDS011;63353;48.702;8.884;2022-12-18T04:03:08;40.60;;;18.15;;
74821;SDS011;63353;48.702;8.884;2022-12-18T04:05:47;33.13;;;13.75;;
74821;SDS011;63353;48.702;8.884;2022-12-18T04:08:16;46.70;;;19.13;;
74821;SDS011;63353;48.702;8.884;2022-12-18T04:10:45;40.80;;;17.30;;
74821;SDS011;63353;48.702;8.884;2022-12-18T04:13:21;42.95;;;17.05;;
74821;SDS011;63353;48.702;8.884;2022-12-18T04:16:00;39.60;;;16.08;;
74821;SDS011;63353;48.702;8.884;2022-12-18T04:18:26;42.83;;;17.52;;
74821;SDS011;63353;48.702;8.884;2022-12-18T04:20:52;43.33;;;16.37;;
74821;SDS011;63353;48.702;8.884;2022-12-18T04:23:23;36.97;;;16.05;;
74821;SDS011;63353;48.702;8.884;2022-12-18T04:25:49;37.33;;;15.07;;
74821;SDS011;63353;48.702;8.884;2022-12-18T04:28:21;43.55;;;14.77;;
74821;SDS011;63353;48.702;8.884;2022-12-18T04:30:46;45.43;;;16.60;;
74821;SDS011;63353;48.702;8.884;2022-12-18T04:33:18;39.38;;;15.57;;
74821;SDS011;63353;48.702;8.884;2022-12-18T04:35:50;34.53;;;15.57;;
74821;SDS011;63353;48.702;8.884;2022-12-18T04:38:16;38.28;;;15.57;;
74821;SDS011;63353;48.702;8.884;2022-12-18T04:40:53;40.90;;;16.47;;
74821;SDS011;63353;48.702;8.884;2022-12-18T04:43:19;42.72;;;15.95;;
74821;SDS011;63353;48.702;8.884;2022-12-18T04:45:45;40.63;;;15.93;;
74821;SDS011;63353;48.702;8.884;2022-12-18T04:48:16;36.50;;;14.87;;
74821;SDS011;63353;48.702;8.884;2022-12-18T04:50:42;37.17;;;16.63;;
74821;SDS011;63353;48.702;8.884;2022-12-18T04:53:17;41.40;;;15.57;;
74821;SDS011;63353;48.702;8.884;2022-12-18T04:55:42;43.67;;;16.92;;
74821;SDS011;63353;48.702;8.884;2022-12-18T04:58:14;48.37;;;17.20;;
74821;SDS011;63353;48.702;8.884;2022-12-18T05:00:49;56.50;;;17.70;;
74821;SDS011;63353;48.702;8.884;2022-12-18T05:03:20;42.58;;;14.65;;
74821;SDS011;63353;48.702;8.884;2022-12-18T05:05:49;36.57;;;13.20;;
74821;SDS011;63353;48.702;8.884;2022-12-18T05:08:18;44.65;;;15.38;;
74821;SDS011;63353;48.702;8.884;2022-12-18T05:10:57;52.70;;;17.83;;
74821;SDS011;63353;48.702;8.884;2022-12-18T05:13:24;53.22;;;17.83;;
74821;SDS011;63353;48.702;8.884;2022-12-18T05:15:52;53.17;;;17.23;;
74821;SDS011;63353;48.702;8.884;2022-12-18T05:18:27;60.90;;;18.83;;
74821;SDS011;63353;48.702;8.884;2022-12-18T05:20:59;60.72;;;19.02;;
74821;SDS011;63353;48.702;8.884;2022-12-18T05:23:25;60.20;;;19.17;;
74821;SDS011;63353;48.702;8.884;2022-12-18T05:26:00;42.80;;;14.65;;
74821;SDS011;63353;48.702;8.884;2022-12-18T05:28:27;57.85;;;19.17;;
74821;SDS011;63353;48.702;8.884;2022-12-18T05:30:58;55.58;;;19.13;;
74821;SDS011;63353;48.702;8.884;2022-12-18T05:33:29;57.80;;;18.50;;
74821;SDS011;63353;48.702;8.884;2022-12-18T05:35:58;54.47;;;19.95;;
74821;SDS011;63353;48.702;8.884;2022-12-18T05:38:28;53.90;;;17.67;;
74821;SDS011;63353;48.702;8.884;2022-12-18T05:41:01;52.00;;;18.55;;
74821;SDS011;63353;48.702;8.884;2022-12-18T05:43:30;48.05;;;18.38;;
74821;SDS011;63353;48.702;8.884;2022-12-18T05:46:11;53.40;;;19.15;;
74821;SDS011;63353;48.702;8.884;2022-12-18T05:48:42;49.95;;;18.20;;
74821;SDS011;63353;48.702;8.884;2022-12-18T05:51:21;55.10;;;19.33;;
74821;SDS011;63353;48.702;8.884;2022-12-18T05:53:50;56.38;;;19.38;;
74821;SDS011;63353;48.702;8.884;2022-12-18T05:56:25;57.92;;;20.00;;
74821;SDS011;63353;48.702;8.884;2022-12-18T05:58:54;49.88;;;19.15;;
74821;SDS011;63353;48.702;8.884;2022-12-18T06:01:21;54.07;;;19.87;;
74821;SDS011;63353;48.702;8.884;2022-12-18T06:03:49;56.40;;;20.45;;
74821;SDS011;63353;48.702;8.884;2022-12-18T06:06:21;51.93;;;20.27;;
74821;SDS011;63353;48.702;8.884;2022-12-18T06:08:49;58.55;;;20.55;;
74821;SDS011;63353;48.702;8.884;2022-12-18T06:11:22;56.25;;;19.40;;
74821;SDS011;63353;48.702;8.884;2022-12-18T06:13:50;49.15;;;18.80;;
74821;SDS011;63353;48.702;8.884;2022-12-18T06:16:18;52.92;;;19.85;;
74821;SDS011;63353;48.702;8.884;2022-12-18T06:18:43;52.23;;;19.97;;
74821;SDS011;63353;48.702;8.884;2022-12-18T06:21:12;51.03;;;19.53;;
74821;SDS011;63353;48.702;8.884;2022-12-18T06:23:38;56.35;;;19.17;;
74821;SDS011;63353;48.702;8.884;2022-12-18T06:26:16;47.40;;;17.30;;
74821;SDS011;63353;48.702;8.884;2022-12-18T06:28:41;52.85;;;19.65;;
74821;SDS011;63353;48.702;8.884;2022-12-18T06:31:08;53.30;;;19.13;;
74821;SDS011;63353;48.702;8.884;2022-12-18T06:33:34;51.67;;;19.80;;
74821;SDS011;63353;48.702;8.884;2022-12-18T06:36:01;49.85;;;18.60;;
74821;SDS011;63353;48.702;8.884;2022-12-18T06:38:33;47.45;;;18.13;;
74821;SDS011;63353;48.702;8.884;2022-12-18T06:40:59;41.58;;;17.58;;
74821;SDS011;63353;48.702;8.884;2022-12-18T06:43:24;39.87;;;17.43;;
74821;SDS011;63353;48.702;8.884;2022-12-18T06:45:50;41.97;;;16.07;;
74821;SDS011;63353;48.702;8.884;2022-12-18T06:48:26;44.75;;;16.13;;
74821;SDS011;63353;48.702;8.884;2022-12-18T06:50:52;39.05;;;16.35;;
74821;SDS011;63353;48.702;8.884;2022-12-18T06:53:27;39.53;;;15.45;;
74821;SDS011;63353;48.702;8.884;2022-12-18T06:55:59;39.30;;;15.65;;
74821;SDS011;63353;48.702;8.884;2022-12-18T06:58:28;56.50;;;20.70;;
74821;SDS011;63353;48.702;8.884;2022-12-18T07:00:59;47.80;;;17.93;;
74821;SDS011;63353;48.702;8.884;2022-12-18T07:03:26;48.83;;;18.70;;
74821;SDS011;63353;48.702;8.884;2022-12-18T07:05:51;52.90;;;18.73;;
74821;SDS011;63353;48.702;8.884;2022-12-18T07:08:20;58.03;;;21.83;;
74821;SDS011;63353;48.702;8.884;2022-12-18T07:10:49;61.60;;;21.48;;
74821;SDS011;63353;48.702;8.884;2022-12-18T07:13:17;53.15;;;20.48;;
74821;SDS011;63353;48.702;8.884;2022-12-18T07:15:43;56.03;;;20.23;;
74821;SDS011;63353;48.702;8.884;2022-12-18T07:18:27;49.00;;;19.20;;
74821;SDS011;63353;48.702;8.884;2022-12-18T07:20:56;50.53;;;18.40;;
74821;SDS011;63353;48.702;8.884;2022-12-18T07:23:22;47.10;;;20.15;;
74821;SDS011;63353;48.702;8.884;2022-12-18T07:25:59;58.70;;;22.83;;
74821;SDS011;63353;48.702;8.884;2022-12-18T07:28:36;52.17;;;20.75;;
74821;SDS011;63353;48.702;8.884;2022-12-18T07:31:09;57.75;;;23.88;;
74821;SDS011;63353;48.702;8.884;2022-12-18T07:33:39;44.83;;;16.23;;
74821;SDS011;63353;48.702;8.884;2022-12-18T07:36:09;56.47;;;21.77;;
74821;SDS011;63353;48.702;8.884;2022-12-18T07:38:36;50.38;;;19.23;;
74821;SDS011;63353;48.702;8.884;2022-12-18T07:43:28;53.05;;;22.35;;
74821;SDS011;63353;48.702;8.884;2022-12-18T07:45:54;48.10;;;18.87;;
74821;SDS011;63353;48.702;8.884;2022-12-18T07:48:22;47.95;;;18.55;;
74821;SDS011;63353;48.702;8.884;2022-12-18T07:50:52;55.00;;;21.67;;
74821;SDS011;63353;48.702;8.884;2022-12-18T07:53:18;56.65;;;19.92;;
74821;SDS011;63353;48.702;8.884;2022-12-18T07:55:44;40.70;;;16.80;;
74821;SDS011;63353;48.702;8.884;2022-12-18T07:58:15;48.00;;;19.10;;
74821;SDS011;63353;48.702;8.884;2022-12-18T08:00:41;47.40;;;19.57;;
74821;SDS011;63353;48.702;8.884;2022-12-18T08:03:13;54.35;;;20.27;;
74821;SDS011;63353;48.702;8.884;2022-12-18T08:05:41;45.87;;;19.70;;
74821;SDS011;63353;48.702;8.884;2022-12-18T08:08:07;53.83;;;21.10;;
74821;SDS011;63353;48.702;8.884;2022-12-18T08:10:33;60.83;;;22.30;;
74821;SDS011;63353;48.702;8.884;2022-12-18T08:12:58;43.73;;;17.73;;
74821;SDS011;63353;48.702;8.884;2022-12-18T08:15:24;51.53;;;20.30;;
74821;SDS011;63353;48.702;8.884;2022-12-18T08:17:58;45.33;;;18.53;;
74821;SDS011;63353;48.702;8.884;2022-12-18T08:20:24;46.77;;;18.90;;
74821;SDS011;63353;48.702;8.884;2022-12-18T08:22:52;45.47;;;21.40;;
74821;SDS011;63353;48.702;8.884;2022-12-18T08:25:23;52.50;;;23.10;;
74821;SDS011;63353;48.702;8.884;2022-12-18T08:27:48;43.67;;;20.53;;
74821;SDS011;63353;48.702;8.884;2022-12-18T08:30:20;52.67;;;21.40;;
74821;SDS011;63353;48.702;8.884;2022-12-18T08:32:45;40.50;;;17.23;;
74821;SDS011;63353;48.702;8.884;2022-12-18T08:35:11;46.87;;;20.90;;
74821;SDS011;63353;48.702;8.884;2022-12-18T08:37:46;52.13;;;22.53;;
74821;SDS011;63353;48.702;8.884;2022-12-18T08:40:14;51.03;;;21.80;;
74821;SDS011;63353;48.702;8.884;2022-12-18T08:42:40;51.30;;;21.50;;
74821;SDS011;63353;48.702;8.884;2022-12-18T08:45:24;50.00;;;21.17;;
74821;SDS011;63353;48.702;8.884;2022-12-18T08:47:59;51.93;;;21.00;;
74821;SDS011;63353;48.702;8.884;2022-12-18T08:50:27;52.00;;;20.67;;
74821;SDS011;63353;48.702;8.884;2022-12-18T08:52:56;45.83;;;19.33;;
74821;SDS011;63353;48.702;8.884;2022-12-18T08:55:22;46.10;;;18.87;;
74821;SDS011;63353;48.702;8.884;2022-12-18T08:58:12;37.47;;;17.57;;
74821;SDS011;63353;48.702;8.884;2022-12-18T09:00:38;46.80;;;18.33;;
74821;SDS011;63353;48.702;8.884;2022-12-18T09:03:03;45.70;;;18.37;;
74821;SDS011;63353;48.702;8.884;2022-12-18T09:05:29;39.47;;;16.10;;
74821;SDS011;63353;48.702;8.884;2022-12-18T09:07:55;42.90;;;18.73;;
74821;SDS011;63353;48.702;8.884;2022-12-18T09:10:30;43.50;;;19.17;;
74821;SDS011;63353;48.702;8.884;2022-12-18T09:12:58;38.07;;;17.77;;
74821;SDS011;63353;48.702;8.884;2022-12-18T09:15:24;39.73;;;16.27;;
74821;SDS011;63353;48.702;8.884;2022-12-18T09:17:52;40.93;;;17.47;;
74821;SDS011;63353;48.702;8.884;2022-12-18T09:20:18;45.03;;;20.17;;
74821;SDS011;63353;48.702;8.884;2022-12-18T09:22:47;40.00;;;18.33;;
74821;SDS011;63353;48.702;8.884;2022-12-18T09:25:16;41.40;;;17.73;;
74821;SDS011;63353;48.702;8.884;2022-12-18T09:27:42;34.70;;;16.43;;
74821;SDS011;63353;48.702;8.884;2022-12-18T09:30:08;41.50;;;17.60;;
74821;SDS011;63353;48.702;8.884;2022-12-18T09:32:34;38.83;;;16.17;;
74821;SDS011;63353;48.702;8.884;2022-12-18T09:34:59;44.03;;;16.73;;
74821;SDS011;63353;48.702;8.884;2022-12-18T09:37:26;34.80;;;16.87;;
74821;SDS011;63353;48.702;8.884;2022-12-18T09:39:55;32.97;;;14.97;;
74821;SDS011;63353;48.702;8.884;2022-12-18T09:42:21;37.57;;;16.40;;
74821;SDS011;63353;48.702;8.884;2022-12-18T09:44:49;36.00;;;16.40;;
74821;SDS011;63353;48.702;8.884;2022-12-18T09:50:04;36.80;;;15.50;;
74821;SDS011;63353;48.702;8.884;2022-12-18T09:52:45;37.73;;;16.70;;
74821;SDS011;63353;48.702;8.884;2022-12-18T09:58:17;34.87;;;16.03;;
74821;SDS011;63353;48.702;8.884;2022-12-18T10:01:15;47.43;;;23.80;;
74821;SDS011;63353;48.702;8.884;2022-12-18T10:03:46;33.87;;;15.97;;
74821;SDS011;63353;48.702;8.884;2022-12-18T10:14:34;41.27;;;17.70;;
74821;SDS011;63353;48.702;8.884;2022-12-18T10:24:50;37.57;;;16.17;;
74821;SDS011;63353;48.702;8.884;2022-12-18T10:27:37;42.03;;;17.97;;
74821;SDS011;63353;48.702;8.884;2022-12-18T10:30:07;38.83;;;17.90;;
74821;SDS011;63353;48.702;8.884;2022-12-18T10:32:44;40.00;;;18.73;;
74821;SDS011;63353;48.702;8.884;2022-12-18T10:35:20;35.53;;;16.93;;
74821;SDS011;63353;48.702;8.884;2022-12-18T10:38:02;38.43;;;17.20;;
74821;SDS011;63353;48.702;8.884;2022-12-18T10:41:02;37.13;;;16.80;;
74821;SDS011;63353;48.702;8.884;2022-12-18T10:43:45;36.63;;;16.97;;
74821;SDS011;63353;48.702;8.884;2022-12-18T10:46:39;40.80;;;17.43;;
74821;SDS011;63353;48.702;8.884;2022-12-18T10:52:07;39.70;;;16.93;;
74821;SDS011;63353;48.702;8.884;2022-12-18T10:54:54;40.77;;;18.17;;
74821;SDS011;63353;48.702;8.884;2022-12-18T11:00:21;39.87;;;17.73;;
74821;SDS011;63353;48.702;8.884;2022-12-18T11:02:49;47.73;;;19.67;;
74821;SDS011;63353;48.702;8.884;2022-12-18T11:07:58;48.27;;;21.37;;
74821;SDS011;63353;48.702;8.884;2022-12-18T11:10:30;47.97;;;22.20;;
74821;SDS011;63353;48.702;8.884;2022-12-18T11:13:17;38.80;;;18.00;;
74821;SDS011;63353;48.702;8.884;2022-12-18T11:15:45;41.50;;;20.13;;
74821;SDS011;63353;48.702;8.884;2022-12-18T11:18:19;47.50;;;20.50;;
74821;SDS011;63353;48.702;8.884;2022-12-18T11:20:59;41.20;;;18.77;;
74821;SDS011;63353;48.702;8.884;2022-12-18T11:23:51;52.40;;;22.13;;
74821;SDS011;63353;48.702;8.884;2022-12-18T11:26:18;45.73;;;21.13;;
74821;SDS011;63353;48.702;8.884;2022-12-18T11:29:07;53.90;;;23.17;;
74821;SDS011;63353;48.702;8.884;2022-12-18T11:31:47;42.57;;;19.63;;
74821;SDS011;63353;48.702;8.884;2022-12-18T11:34:28;42.47;;;19.43;;
74821;SDS011;63353;48.702;8.884;2022-12-18T11:36:57;41.27;;;18.80;;
74821;SDS011;63353;48.702;8.884;2022-12-18T11:45:29;42.40;;;20.17;;
74821;SDS011;63353;48.702;8.884;2022-12-18T11:48:03;41.90;;;19.03;;
74821;SDS011;63353;48.702;8.884;2022-12-18T11:50:49;38.57;;;18.17;;
74821;SDS011;63353;48.702;8.884;2022-12-18T11:53:21;44.13;;;19.87;;
74821;SDS011;63353;48.702;8.884;2022-12-18T11:58:29;44.43;;;21.80;;
74821;SDS011;63353;48.702;8.884;2022-12-18T12:01:20;41.67;;;18.80;;
74821;SDS011;63353;48.702;8.884;2022-12-18T12:21:16;41.57;;;19.47;;
74821;SDS011;63353;48.702;8.884;2022-12-18T12:24:00;45.83;;;20.80;;
74821;SDS011;63353;48.702;8.884;2022-12-18T12:26:49;42.40;;;19.93;;
74821;SDS011;63353;48.702;8.884;2022-12-18T12:32:07;45.43;;;20.73;;
74821;SDS011;63353;48.702;8.884;2022-12-18T12:37:54;43.50;;;20.37;;
74821;SDS011;63353;48.702;8.884;2022-12-18T12:40:39;41.37;;;18.90;;
74821;SDS011;63353;48.702;8.884;2022-12-18T12:43:22;42.43;;;20.30;;
74821;SDS011;63353;48.702;8.884;2022-12-18T12:46:25;54.40;;;23.43;;
74821;SDS011;63353;48.702;8.884;2022-12-18T12:48:55;41.63;;;20.17;;
74821;SDS011;63353;48.702;8.884;2022-12-18T12:52:07;45.10;;;20.07;;
74821;SDS011;63353;48.702;8.884;2022-12-18T12:54:36;48.23;;;21.70;;
74821;SDS011;63353;48.702;8.884;2022-12-18T13:08:22;45.77;;;21.00;;
74821;SDS011;63353;48.702;8.884;2022-12-18T13:10:53;44.30;;;20.73;;
74821;SDS011;63353;48.702;8.884;2022-12-18T13:13:57;48.57;;;21.07;;
74821;SDS011;63353;48.702;8.884;2022-12-18T13:16:23;46.67;;;21.37;;
74821;SDS011;63353;48.702;8.884;2022-12-18T13:18:53;48.73;;;22.63;;
74821;SDS011;63353;48.702;8.884;2022-12-18T13:21:23;49.77;;;22.60;;
74821;SDS011;63353;48.702;8.884;2022-12-18T13:24:15;58.30;;;26.27;;
74821;SDS011;63353;48.702;8.884;2022-12-18T13:26:53;94.03;;;38.70;;
74821;SDS011;63353;48.702;8.884;2022-12-18T13:32:29;57.63;;;27.73;;
74821;SDS011;63353;48.702;8.884;2022-12-18T13:37:53;75.37;;;32.87;;
74821;SDS011;63353;48.702;8.884;2022-12-18T13:43:15;59.60;;;27.87;;
74821;SDS011;63353;48.702;8.884;2022-12-18T13:48:27;54.67;;;25.53;;
74821;SDS011;63353;48.702;8.884;2022-12-18T13:51:04;56.07;;;24.77;;
74821;SDS011;63353;48.702;8.884;2022-12-18T13:53:36;53.07;;;25.53;;
74821;SDS011;63353;48.702;8.884;2022-12-18T13:56:07;52.37;;;24.33;;
74821;SDS011;63353;48.702;8.884;2022-12-18T13:58:32;71.50;;;32.67;;
74821;SDS011;63353;48.702;8.884;2022-12-18T14:00:58;56.97;;;26.87;;
74821;SDS011;63353;48.702;8.884;2022-12-18T14:03:27;47.33;;;22.67;;
74821;SDS011;63353;48.702;8.884;2022-12-18T14:05:56;51.17;;;24.93;;
74821;SDS011;63353;48.702;8.884;2022-12-18T14:08:25;48.50;;;22.90;;
74821;SDS011;63353;48.702;8.884;2022-12-18T14:10:57;51.10;;;25.70;;
74821;SDS011;63353;48.702;8.884;2022-12-18T14:15:51;46.10;;;22.53;;
74821;SDS011;63353;48.702;8.884;2022-12-18T14:18:25;47.20;;;21.13;;
74821;SDS011;63353;48.702;8.884;2022-12-18T14:21:24;46.57;;;22.77;;
74821;SDS011;63353;48.702;8.884;2022-12-18T14:24:11;47.47;;;22.20;;
74821;SDS011;63353;48.702;8.884;2022-12-18T14:26:40;47.33;;;21.63;;
74821;SDS011;63353;48.702;8.884;2022-12-18T14:29:39;71.53;;;33.93;;
74821;SDS011;63353;48.702;8.884;2022-12-18T14:34:41;43.73;;;22.33;;
74821;SDS011;63353;48.702;8.884;2022-12-18T14:37:09;49.83;;;24.17;;
74821;SDS011;63353;48.702;8.884;2022-12-18T14:39:36;49.83;;;21.63;;
74821;SDS011;63353;48.702;8.884;2022-12-18T14:42:02;50.87;;;23.10;;
74821;SDS011;63353;48.702;8.884;2022-12-18T14:44:31;45.10;;;21.27;;
74821;SDS011;63353;48.702;8.884;2022-12-18T14:46:56;48.40;;;21.73;;
74821;SDS011;63353;48.702;8.884;2022-12-18T14:49:34;49.80;;;24.57;;
74821;SDS011;63353;48.702;8.884;2022-12-18T14:52:05;52.97;;;25.70;;
74821;SDS011;63353;48.702;8.884;2022-12-18T14:54:45;45.40;;;21.47;;
74821;SDS011;63353;48.702;8.884;2022-12-18T14:57:25;46.07;;;19.87;;
74821;SDS011;63353;48.702;8.884;2022-12-18T15:00:07;45.00;;;22.67;;
74821;SDS011;63353;48.702;8.884;2022-12-18T15:02:40;51.53;;;24.83;;
74821;SDS011;63353;48.702;8.884;2022-12-18T15:07:49;50.97;;;22.40;;
74821;SDS011;63353;48.702;8.884;2022-12-18T15:10:19;40.93;;;20.10;;
74821;SDS011;63353;48.702;8.884;2022-12-18T15:18:03;52.07;;;22.47;;
74821;SDS011;63353;48.702;8.884;2022-12-18T15:20:44;48.73;;;19.83;;
74821;SDS011;63353;48.702;8.884;2022-12-18T15:23:19;47.77;;;19.37;;
74821;SDS011;63353;48.702;8.884;2022-12-18T15:25:58;48.13;;;21.03;;
74821;SDS011;63353;48.702;8.884;2022-12-18T15:28:26;44.37;;;20.43;;
74821;SDS011;63353;48.702;8.884;2022-12-18T15:33:42;51.17;;;25.70;;
74821;SDS011;63353;48.702;8.884;2022-12-18T15:36:28;59.17;;;26.97;;
74821;SDS011;63353;48.702;8.884;2022-12-18T15:38:55;57.47;;;27.43;;
74821;SDS011;63353;48.702;8.884;2022-12-18T15:41:22;62.67;;;28.73;;
74821;SDS011;63353;48.702;8.884;2022-12-18T15:43:49;61.87;;;27.53;;
74821;SDS011;63353;48.702;8.884;2022-12-18T15:46:19;63.40;;;28.07;;
74821;SDS011;63353;48.702;8.884;2022-12-18T15:48:54;64.77;;;29.87;;
74821;SDS011;63353;48.702;8.884;2022-12-18T15:51:37;64.07;;;28.87;;
74821;SDS011;63353;48.702;8.884;2022-12-18T15:54:04;66.93;;;30.60;;
74821;SDS011;63353;48.702;8.884;2022-12-18T15:56:34;64.73;;;29.83;;
74821;SDS011;63353;48.702;8.884;2022-12-18T15:59:19;60.13;;;27.83;;
74821;SDS011;63353;48.702;8.884;2022-12-18T16:01:49;72.27;;;31.27;;
74821;SDS011;63353;48.702;8.884;2022-12-18T16:04:17;58.40;;;28.00;;
74821;SDS011;63353;48.702;8.884;2022-12-18T16:06:49;58.23;;;24.90;;
74821;SDS011;63353;48.702;8.884;2022-12-18T16:09:28;59.20;;;24.03;;
74821;SDS011;63353;48.702;8.884;2022-12-18T16:11:57;50.13;;;22.73;;
74821;SDS011;63353;48.702;8.884;2022-12-18T16:14:25;48.90;;;23.27;;
74821;SDS011;63353;48.702;8.884;2022-12-18T16:16:59;55.90;;;26.70;;
74821;SDS011;63353;48.702;8.884;2022-12-18T16:19:26;52.50;;;25.83;;
74821;SDS011;63353;48.702;8.884;2022-12-18T16:21:54;63.97;;;32.40;;
74821;SDS011;63353;48.702;8.884;2022-12-18T16:24:21;64.27;;;29.67;;
74821;SDS011;63353;48.702;8.884;2022-12-18T16:26:52;58.90;;;27.50;;
74821;SDS011;63353;48.702;8.884;2022-12-18T16:29:19;50.80;;;22.80;;
74821;SDS011;63353;48.702;8.884;2022-12-18T16:31:51;53.87;;;26.67;;
74821;SDS011;63353;48.702;8.884;2022-12-18T16:34:25;52.83;;;24.77;;
74821;SDS011;63353;48.702;8.884;2022-12-18T16:36:56;57.60;;;27.50;;
74821;SDS011;63353;48.702;8.884;2022-12-18T16:39:24;47.43;;;22.40;;
74821;SDS011;63353;48.702;8.884;2022-12-18T16:41:50;49.07;;;22.50;;
74821;SDS011;63353;48.702;8.884;2022-12-18T16:44:16;43.50;;;20.80;;
74821;SDS011;63353;48.702;8.884;2022-12-18T16:46:45;50.60;;;22.90;;
74821;SDS011;63353;48.702;8.884;2022-12-18T16:49:15;47.70;;;22.03;;
74821;SDS011;63353;48.702;8.884;2022-12-18T16:51:41;43.27;;;18.93;;
74821;SDS011;63353;48.702;8.884;2022-12-18T16:54:08;41.57;;;18.23;;
74821;SDS011;63353;48.702;8.884;2022-12-18T16:56:34;46.17;;;20.70;;
74821;SDS011;63353;48.702;8.884;2022-12-18T16:59:00;49.60;;;22.03;;
74821;SDS011;63353;48.702;8.884;2022-12-18T17:01:33;47.33;;;21.07;;
74821;SDS011;63353;48.702;8.884;2022-12-18T17:04:00;48.63;;;21.40;;
74821;SDS011;63353;48.702;8.884;2022-12-18T17:06:28;54.53;;;24.03;;
74821;SDS011;63353;48.702;8.884;2022-12-18T17:08:56;48.23;;;21.10;;
74821;SDS011;63353;48.702;8.884;2022-12-18T17:11:28;51.17;;;23.20;;
74821;SDS011;63353;48.702;8.884;2022-12-18T17:13:55;55.33;;;24.43;;
74821;SDS011;63353;48.702;8.884;2022-12-18T17:16:21;51.27;;;22.20;;
74821;SDS011;63353;48.702;8.884;2022-12-18T17:18:51;52.37;;;23.83;;
74821;SDS011;63353;48.702;8.884;2022-12-18T17:21:20;53.63;;;21.87;;
74821;SDS011;63353;48.702;8.884;2022-12-18T17:23:46;55.53;;;23.13;;